createdAt,value
2024-05-09T00:00:42.021Z,11.6017
2024-05-09T00:01:41.882Z,11.6224
2024-05-09T00:02:43.998Z,11.6380
2024-05-09T00:03:46.206Z,11.6494
2024-05-09T00:04:48.360Z,11.6503
2024-05-09T00:05:50.550Z,11.6532
2024-05-09T00:06:52.655Z,11.6626
2024-05-09T00:07:54.757Z,11.6533
2024-05-09T00:08:56.847Z,11.6238
2024-05-09T00:09:58.931Z,11.6006
2024-05-09T00:11:01.073Z,11.5669
2024-05-09T00:12:03.221Z,11.5447
2024-05-09T00:13:05.547Z,11.5237
2024-05-09T00:14:07.695Z,11.5209
2024-05-09T00:15:09.782Z,11.5116
2024-05-09T00:16:11.869Z,11.5031
2024-05-09T00:17:14.055Z,11.5042
2024-05-09T00:18:16.398Z,11.5179
2024-05-09T00:19:18.698Z,11.5229
2024-05-09T00:20:28.052Z,11.5245
2024-05-09T00:21:21.391Z,11.5304
2024-05-09T00:22:23.447Z,11.5280
2024-05-09T00:23:25.608Z,11.4978
2024-05-09T00:24:27.718Z,11.4538
2024-05-09T00:25:29.789Z,11.4191
2024-05-09T00:26:32.014Z,11.3816
2024-05-09T00:27:34.072Z,11.3156
2024-05-09T00:28:36.199Z,11.2566
2024-05-09T00:29:38.291Z,11.2381
2024-05-09T00:30:40.335Z,11.2263
2024-05-09T00:31:42.481Z,11.2264
2024-05-09T00:32:44.682Z,11.2156
2024-05-09T00:33:46.904Z,11.1990
2024-05-09T00:34:49.057Z,11.1745
2024-05-09T00:35:51.096Z,11.1575
2024-05-09T00:36:53.182Z,11.1460
2024-05-09T00:37:55.352Z,11.1140
2024-05-09T00:38:57.402Z,11.1012
2024-05-09T00:39:59.461Z,11.0827
2024-05-09T00:41:01.560Z,11.0739
2024-05-09T00:42:03.629Z,11.0718
2024-05-09T00:43:05.724Z,11.0681
2024-05-09T00:44:07.842Z,11.0657
2024-05-09T00:45:09.884Z,11.0664
2024-05-09T00:46:11.971Z,11.0672
2024-05-09T00:47:14.145Z,11.0757
2024-05-09T00:48:18.863Z,11.0834
2024-05-09T00:49:18.114Z,11.0968
2024-05-09T00:50:29.389Z,11.1090
2024-05-09T00:51:20.974Z,11.1105
2024-05-09T00:52:23.065Z,11.1163
2024-05-09T00:53:25.185Z,11.1341
2024-05-09T00:54:27.197Z,11.1512
2024-05-09T00:55:29.291Z,11.1641
2024-05-09T00:56:31.530Z,11.1764
2024-05-09T00:57:33.616Z,11.1940
2024-05-09T00:58:35.696Z,11.2133
2024-05-09T00:59:37.811Z,11.2271
2024-05-09T01:00:41.256Z,11.2270
2024-05-09T01:01:41.527Z,11.2345
2024-05-09T01:02:43.737Z,11.2544
2024-05-09T01:03:48.717Z,11.2727
2024-05-09T01:04:47.576Z,11.2916
2024-05-09T01:05:49.858Z,11.3108
2024-05-09T01:06:51.961Z,11.3294
2024-05-09T01:07:54.150Z,11.3346
2024-05-09T01:08:56.206Z,11.3388
2024-05-09T01:09:58.289Z,11.3495
2024-05-09T01:11:00.472Z,11.3466
2024-05-09T01:12:02.705Z,11.3601
2024-05-09T01:13:04.906Z,11.3790
2024-05-09T01:14:07.142Z,11.3952
2024-05-09T01:15:09.223Z,11.4016
2024-05-09T01:16:11.291Z,11.4038
2024-05-09T01:17:13.459Z,11.4022
2024-05-09T01:18:15.885Z,11.4120
2024-05-09T01:19:18.149Z,11.4264
2024-05-09T01:20:27.826Z,11.4292
2024-05-09T01:21:20.922Z,11.4291
2024-05-09T01:22:23.029Z,11.4276
2024-05-09T01:23:25.235Z,11.4268
2024-05-09T01:24:27.265Z,11.4250
2024-05-09T01:25:29.340Z,11.4219
2024-05-09T01:26:31.494Z,11.4208
2024-05-09T01:27:33.544Z,11.4327
2024-05-09T01:28:35.678Z,11.4482
2024-05-09T01:29:37.834Z,11.4498
2024-05-09T01:30:39.915Z,11.4501
2024-05-09T01:31:42.030Z,11.4735
2024-05-09T01:32:44.164Z,11.4980
2024-05-09T01:33:46.693Z,11.4965
2024-05-09T01:34:46.506Z,11.4896
2024-05-09T01:35:48.581Z,11.4944
2024-05-09T01:36:50.698Z,11.4875
2024-05-09T01:37:52.774Z,11.4815
2024-05-09T01:38:54.868Z,11.4753
2024-05-09T01:39:56.962Z,11.4638
2024-05-09T01:40:59.067Z,11.4567
2024-05-09T01:42:01.107Z,11.4561
2024-05-09T01:43:03.216Z,11.4554
2024-05-09T01:44:05.312Z,11.4584
2024-05-09T01:45:07.371Z,11.4619
2024-05-09T01:46:09.444Z,11.4749
2024-05-09T01:47:11.735Z,11.4839
2024-05-09T01:48:11.891Z,11.4861
2024-05-09T01:49:14.365Z,11.4866
2024-05-09T01:51:15.853Z,11.5096
2024-05-09T01:52:17.909Z,11.5154
2024-05-09T01:53:20.103Z,11.5164
2024-05-09T01:54:22.162Z,11.5243
2024-05-09T01:55:24.357Z,11.5314
2024-05-09T01:56:26.446Z,11.5365
2024-05-09T01:57:28.635Z,11.5429
2024-05-09T01:58:30.731Z,11.5329
2024-05-09T01:59:32.897Z,11.5137
2024-05-09T02:00:40.022Z,11.5030
2024-05-09T02:01:55.592Z,11.4977
2024-05-09T02:02:36.224Z,11.4987
2024-05-09T02:03:38.531Z,11.5006
2024-05-09T02:04:40.791Z,11.4997
2024-05-09T02:05:42.978Z,11.5023
2024-05-09T02:06:42.916Z,11.5080
2024-05-09T02:07:46.415Z,11.5093
2024-05-09T02:08:49.613Z,11.5108
2024-05-09T02:09:53.058Z,11.5186
2024-05-09T02:10:56.366Z,11.5341
2024-05-09T02:11:59.715Z,11.5400
2024-05-09T02:13:02.950Z,11.5290
2024-05-09T02:14:06.311Z,11.5163
2024-05-09T02:15:09.508Z,11.5142
2024-05-09T02:16:12.728Z,11.5241
2024-05-09T02:17:16.128Z,11.5347
2024-05-09T02:18:17.029Z,11.5489
2024-05-09T02:19:16.899Z,11.5652
2024-05-09T02:20:30.048Z,11.5798
2024-05-09T02:21:22.265Z,11.5978
2024-05-09T02:22:25.465Z,11.6178
2024-05-09T02:23:28.688Z,11.6308
2024-05-09T02:24:31.924Z,11.6343
2024-05-09T02:25:35.128Z,11.6370
2024-05-09T02:26:38.368Z,11.6461
2024-05-09T02:27:41.606Z,11.6557
2024-05-09T02:28:44.827Z,11.6624
2024-05-09T02:29:48.080Z,11.6588
2024-05-09T02:30:51.272Z,11.6622
2024-05-09T02:31:54.574Z,11.6657
2024-05-09T02:32:57.884Z,11.6635
2024-05-09T02:34:01.499Z,11.6688
2024-05-09T02:35:01.572Z,11.6812
2024-05-09T02:36:04.946Z,11.6819
2024-05-09T02:37:08.177Z,11.6864
2024-05-09T02:38:11.491Z,11.6998
2024-05-09T02:39:11.436Z,11.7124
2024-05-09T02:40:18.119Z,11.7180
2024-05-09T02:41:16.794Z,11.7228
2024-05-09T02:42:18.115Z,11.7283
2024-05-09T02:43:21.279Z,11.7216
2024-05-09T02:44:24.591Z,11.7094
2024-05-09T02:45:27.833Z,11.6980
2024-05-09T02:46:27.905Z,11.6978
2024-05-09T02:47:31.183Z,11.6916
2024-05-09T02:48:34.561Z,11.6901
2024-05-09T02:49:37.818Z,11.6978
2024-05-09T02:50:41.297Z,11.7089
2024-05-09T02:51:41.176Z,11.7116
2024-05-09T02:52:44.381Z,11.7112
2024-05-09T02:53:47.646Z,11.7085
2024-05-09T02:54:50.943Z,11.7064
2024-05-09T02:55:54.158Z,11.7073
2024-05-09T02:56:57.342Z,11.7102
2024-05-09T02:58:00.587Z,11.7056
2024-05-09T02:59:03.875Z,11.6971
2024-05-09T03:00:12.101Z,11.6881
2024-05-09T03:01:09.175Z,11.6741
2024-05-09T03:02:12.498Z,11.6666
2024-05-09T03:03:16.080Z,11.6616
2024-05-09T03:04:16.151Z,11.6609
2024-05-09T03:05:19.541Z,11.6520
2024-05-09T03:06:22.725Z,11.6397
2024-05-09T03:07:26.220Z,11.6212
2024-05-09T03:08:26.164Z,11.5962
2024-05-09T03:09:29.337Z,11.5703
2024-05-09T03:10:35.852Z,11.5608
2024-05-09T03:11:34.815Z,11.5599
2024-05-09T03:12:37.859Z,11.5607
2024-05-09T03:13:35.152Z,11.5487
2024-05-09T03:14:38.352Z,11.5181
2024-05-09T03:15:41.618Z,11.4878
2024-05-09T03:16:44.823Z,11.4708
2024-05-09T03:17:48.162Z,11.4667
2024-05-09T03:18:48.041Z,11.4703
2024-05-09T03:19:51.300Z,11.4744
2024-05-09T03:20:54.590Z,11.4787
2024-05-09T03:21:57.825Z,11.4808
2024-05-09T03:23:01.053Z,11.4722
2024-05-09T03:24:04.299Z,11.4621
2024-05-09T03:25:05.563Z,11.4547
2024-05-09T03:26:08.856Z,11.4526
2024-05-09T03:27:12.020Z,11.4524
2024-05-09T03:28:15.312Z,11.4599
2024-05-09T03:29:15.344Z,11.4601
2024-05-09T03:30:29.552Z,11.4557
2024-05-09T03:31:20.731Z,11.4564
2024-05-09T03:32:24.121Z,11.4629
2024-05-09T03:33:27.518Z,11.4528
2024-05-09T03:34:30.948Z,11.4354
2024-05-09T03:35:34.207Z,11.4256
2024-05-09T03:36:37.394Z,11.4244
2024-05-09T03:37:40.599Z,11.4270
2024-05-09T03:38:43.876Z,11.4235
2024-05-09T03:39:47.046Z,11.4226
2024-05-09T03:40:50.890Z,11.4228
2024-05-09T03:41:51.020Z,11.4195
2024-05-09T03:42:54.230Z,11.4045
2024-05-09T03:43:58.354Z,11.3848
2024-05-09T03:44:58.052Z,11.3729
2024-05-09T03:46:01.284Z,11.3567
2024-05-09T03:47:04.537Z,11.3451
2024-05-09T03:48:08.096Z,11.3332
2024-05-09T03:49:08.088Z,11.3315
2024-05-09T03:50:18.316Z,11.3360
2024-05-09T03:51:13.549Z,11.3418
2024-05-09T03:52:16.790Z,11.3475
2024-05-09T03:53:20.144Z,11.3598
2024-05-09T03:54:23.317Z,11.3733
2024-05-09T03:55:26.544Z,11.3820
2024-05-09T03:56:29.776Z,11.3896
2024-05-09T03:57:32.996Z,11.3970
2024-05-09T03:58:36.231Z,11.4026
2024-05-09T03:59:39.588Z,11.4085
2024-05-09T04:00:42.845Z,11.4158
2024-05-09T04:01:46.196Z,11.4288
2024-05-09T04:02:49.513Z,11.4370
2024-05-09T04:03:52.845Z,11.4337
2024-05-09T04:04:56.116Z,11.4239
2024-05-09T04:05:59.375Z,11.4151
2024-05-09T04:07:02.563Z,11.4118
2024-05-09T04:08:05.799Z,11.4082
2024-05-09T04:09:05.850Z,11.4024
2024-05-09T04:10:13.885Z,11.3999
2024-05-09T04:11:11.232Z,11.4061
2024-05-09T04:12:14.635Z,11.4093
2024-05-09T04:13:17.843Z,11.4060
2024-05-09T04:14:21.118Z,11.3959
2024-05-09T04:15:24.355Z,11.3838
2024-05-09T04:16:24.416Z,11.3797
2024-05-09T04:17:27.740Z,11.3864
2024-05-09T04:18:31.091Z,11.3894
2024-05-09T04:19:34.535Z,11.3894
2024-05-09T04:20:40.364Z,11.3883
2024-05-09T04:21:40.951Z,11.3911
2024-05-09T04:22:44.267Z,11.3782
2024-05-09T04:23:47.547Z,11.3583
2024-05-09T04:24:50.786Z,11.3442
2024-05-09T04:25:54.839Z,11.3337
2024-05-09T04:26:54.558Z,11.3259
2024-05-09T04:27:57.830Z,11.3262
2024-05-09T04:29:01.086Z,11.3268
2024-05-09T04:30:06.098Z,11.3166
2024-05-09T04:31:07.459Z,11.3102
2024-05-09T04:32:10.817Z,11.3059
2024-05-09T04:33:14.943Z,11.3071
2024-05-09T04:34:15.216Z,11.3124
2024-05-09T04:35:18.501Z,11.3163
2024-05-09T04:36:21.711Z,11.3180
2024-05-09T04:37:24.976Z,11.3076
2024-05-09T04:38:28.221Z,11.2940
2024-05-09T04:39:31.438Z,11.2906
2024-05-09T04:40:36.698Z,11.2930
2024-05-09T04:41:37.281Z,11.2973
2024-05-09T04:42:40.485Z,11.3155
2024-05-09T04:43:43.712Z,11.3367
2024-05-09T04:44:46.953Z,11.3504
2024-05-09T04:45:50.180Z,11.3625
2024-05-09T04:46:53.512Z,11.3711
2024-05-09T04:47:56.966Z,11.3791
2024-05-09T04:48:56.915Z,11.3911
2024-05-09T04:50:00.203Z,11.3949
2024-05-09T04:51:03.709Z,11.3961
2024-05-09T04:52:03.498Z,11.3976
2024-05-09T04:53:07.613Z,11.3975
2024-05-09T04:54:10.738Z,11.3980
2024-05-09T04:55:09.178Z,11.4002
2024-05-09T04:56:12.495Z,11.4022
2024-05-09T04:57:15.708Z,11.4041
2024-05-09T04:58:18.906Z,11.4128
2024-05-09T04:59:22.296Z,11.4296
2024-05-09T05:00:32.044Z,11.4496
2024-05-09T05:01:27.677Z,11.4743
2024-05-09T05:02:30.951Z,11.5025
2024-05-09T05:03:34.292Z,11.5220
2024-05-09T05:04:37.635Z,11.5337
2024-05-09T05:05:41.361Z,11.5363
2024-05-09T05:06:41.326Z,11.5381
2024-05-09T05:07:44.592Z,11.5402
2024-05-09T05:08:47.823Z,11.5469
2024-05-09T05:09:51.039Z,11.5616
2024-05-09T05:10:54.437Z,11.5664
2024-05-09T05:11:57.831Z,11.5673
2024-05-09T05:13:01.083Z,11.5715
2024-05-09T05:14:04.394Z,11.5829
2024-05-09T05:15:07.580Z,11.5895
2024-05-09T05:16:10.802Z,11.5952
2024-05-09T05:17:14.091Z,11.6024
2024-05-09T05:18:17.463Z,11.6066
2024-05-09T05:19:17.839Z,11.5980
2024-05-09T05:20:27.038Z,11.6030
2024-05-09T05:21:19.861Z,11.6099
2024-05-09T05:22:23.094Z,11.6230
2024-05-09T05:23:26.409Z,11.6420
2024-05-09T05:24:29.642Z,11.6585
2024-05-09T05:25:32.865Z,11.6812
2024-05-09T05:26:36.167Z,11.7149
2024-05-09T05:27:39.417Z,11.7479
2024-05-09T05:28:42.652Z,11.7779
2024-05-09T05:29:45.915Z,11.8063
2024-05-09T05:30:49.126Z,11.8329
2024-05-09T05:31:52.443Z,11.8530
2024-05-09T05:32:55.889Z,11.8680
2024-05-09T05:33:55.923Z,11.8752
2024-05-09T05:34:59.213Z,11.8734
2024-05-09T05:36:02.450Z,11.8621
2024-05-09T05:37:05.648Z,11.8446
2024-05-09T05:38:09.004Z,11.8366
2024-05-09T05:39:09.161Z,11.8376
2024-05-09T05:40:20.629Z,11.8442
2024-05-09T05:41:14.608Z,11.8570
2024-05-09T05:42:17.850Z,11.8689
2024-05-09T05:43:21.067Z,11.8815
2024-05-09T05:44:24.364Z,11.8873
2024-05-09T05:45:27.609Z,11.8938
2024-05-09T05:46:30.841Z,11.8985
2024-05-09T05:47:34.323Z,11.9106
2024-05-09T05:48:34.331Z,11.9314
2024-05-09T05:49:34.290Z,11.9629
2024-05-09T05:50:38.591Z,11.9913
2024-05-09T05:51:38.616Z,12.0087
2024-05-09T05:52:41.841Z,12.0195
2024-05-09T05:53:45.137Z,12.0182
2024-05-09T05:54:48.348Z,12.0019
2024-05-09T05:55:51.628Z,11.9933
2024-05-09T05:56:54.895Z,11.9950
2024-05-09T05:57:58.129Z,11.9920
2024-05-09T05:59:01.425Z,11.9815
2024-05-09T06:00:09.233Z,11.9793
2024-05-09T06:01:06.814Z,11.9855
2024-05-09T06:02:10.236Z,11.9979
2024-05-09T06:03:14.290Z,12.0051
2024-05-09T06:04:14.322Z,12.0036
2024-05-09T06:05:17.605Z,11.9968
2024-05-09T06:06:21.024Z,11.9902
2024-05-09T06:07:24.198Z,11.9764
2024-05-09T06:08:30.256Z,11.9697
2024-05-09T06:09:30.374Z,11.9813
2024-05-09T06:10:38.742Z,11.9974
2024-05-09T06:11:35.803Z,12.0168
2024-05-09T06:12:39.124Z,12.0446
2024-05-09T06:13:42.338Z,12.0755
2024-05-09T06:14:45.573Z,12.1047
2024-05-09T06:15:48.976Z,12.1336
2024-05-09T06:16:54.057Z,12.1562
2024-05-09T06:17:54.595Z,12.1797
2024-05-09T06:18:54.602Z,12.1948
2024-05-09T06:19:54.884Z,12.2151
2024-05-09T06:20:55.091Z,12.2486
2024-05-09T06:21:58.308Z,12.2882
2024-05-09T06:23:01.671Z,12.3286
2024-05-09T06:24:06.778Z,12.3689
2024-05-09T06:25:06.536Z,12.4066
2024-05-09T06:26:09.845Z,12.4433
2024-05-09T06:27:13.038Z,12.4921
2024-05-09T06:28:16.363Z,12.5460
2024-05-09T06:29:19.601Z,12.5888
2024-05-09T06:30:30.115Z,12.6410
2024-05-09T06:31:25.005Z,12.7011
2024-05-09T06:32:28.348Z,12.7608
2024-05-09T06:33:31.764Z,12.8217
2024-05-09T06:34:35.082Z,12.8786
2024-05-09T06:35:38.521Z,12.9342
2024-05-09T06:36:38.331Z,12.9832
2024-05-09T06:37:41.615Z,13.0308
2024-05-09T06:38:44.931Z,13.0911
2024-05-09T06:39:48.145Z,13.1615
2024-05-09T06:40:51.427Z,13.2351
2024-05-09T06:41:51.388Z,13.3003
2024-05-09T06:42:54.621Z,13.3498
2024-05-09T06:43:57.962Z,13.3876
2024-05-09T06:45:01.152Z,13.4198
2024-05-09T06:46:04.376Z,13.4488
2024-05-09T06:47:07.785Z,13.4768
2024-05-09T06:48:11.267Z,13.4988
2024-05-09T06:49:11.412Z,13.5150
2024-05-09T06:50:20.153Z,13.5324
2024-05-09T06:51:13.742Z,13.5646
2024-05-09T06:52:16.962Z,13.6044
2024-05-09T06:53:20.380Z,13.6543
2024-05-09T06:54:23.711Z,13.6972
2024-05-09T06:55:26.939Z,13.7249
2024-05-09T06:56:30.358Z,13.7396
2024-05-09T06:57:33.561Z,13.7455
2024-05-09T06:58:36.908Z,13.7391
2024-05-09T06:59:40.268Z,13.7279
2024-05-09T07:00:43.633Z,13.7234
2024-05-09T07:01:46.920Z,13.7297
2024-05-09T07:02:50.349Z,13.7359
2024-05-09T07:03:53.663Z,13.7370
2024-05-09T07:04:57.018Z,13.7165
2024-05-09T07:05:56.938Z,13.6947
2024-05-09T07:07:00.212Z,13.6730
2024-05-09T07:08:03.526Z,13.6432
2024-05-09T07:09:06.768Z,13.6123
2024-05-09T07:10:14.990Z,13.5855
2024-05-09T07:11:12.229Z,13.5554
2024-05-09T07:12:15.539Z,13.5259
2024-05-09T07:13:18.890Z,13.5017
2024-05-09T07:14:22.194Z,13.4922
2024-05-09T07:15:25.395Z,13.4850
2024-05-09T07:16:28.622Z,13.4704
2024-05-09T07:17:32.088Z,13.4497
2024-05-09T07:18:35.508Z,13.4236
2024-05-09T07:19:35.515Z,13.3924
2024-05-09T07:20:38.807Z,13.3519
2024-05-09T07:21:42.059Z,13.3151
2024-05-09T07:22:45.410Z,13.2826
2024-05-09T07:23:48.723Z,13.2559
2024-05-09T07:24:52.031Z,13.2415
2024-05-09T07:25:55.321Z,13.2428
2024-05-09T07:26:58.540Z,13.2604
2024-05-09T07:28:01.899Z,13.2742
2024-05-09T07:29:05.161Z,13.3046
2024-05-09T07:30:09.424Z,13.3523
2024-05-09T07:31:11.277Z,13.4196
2024-05-09T07:32:14.730Z,13.4830
2024-05-09T07:33:14.757Z,13.5334
2024-05-09T07:34:14.830Z,13.5759
2024-05-09T07:35:14.664Z,13.6119
2024-05-09T07:36:17.851Z,13.6466
2024-05-09T07:37:21.075Z,13.6823
2024-05-09T07:38:24.490Z,13.7231
2024-05-09T07:39:27.731Z,13.7629
2024-05-09T07:40:35.966Z,13.7973
2024-05-09T07:41:33.385Z,13.8248
2024-05-09T07:42:36.569Z,13.8292
2024-05-09T07:43:39.804Z,13.8119
2024-05-09T07:44:43.165Z,13.7887
2024-05-09T07:47:48.609Z,13.7411
2024-05-09T07:49:13.573Z,13.7323
2024-05-09T07:52:45.973Z,13.7953
2024-05-09T07:53:22.088Z,13.8162
2024-05-09T07:53:36.082Z,13.8210
2024-05-09T07:54:04.412Z,13.8253
2024-05-09T07:55:04.708Z,13.8271
2024-05-09T07:56:09.359Z,13.8208
2024-05-09T07:57:09.798Z,13.8230
2024-05-09T07:58:13.151Z,13.8420
2024-05-09T07:59:16.433Z,13.8669
2024-05-09T08:00:23.734Z,13.8877
2024-05-09T08:01:22.062Z,13.9226
2024-05-09T08:02:22.256Z,13.9645
2024-05-09T08:03:22.368Z,14.0169
2024-05-09T08:04:26.778Z,14.0836
2024-05-09T08:05:26.753Z,14.1394
2024-05-09T08:06:30.087Z,14.1743
2024-05-09T08:07:33.426Z,14.1921
2024-05-09T08:08:36.621Z,14.2099
2024-05-09T08:09:39.976Z,14.2346
2024-05-09T08:10:43.502Z,14.2683
2024-05-09T08:11:43.386Z,14.2965
2024-05-09T08:12:46.592Z,14.3236
2024-05-09T08:13:49.857Z,14.3555
2024-05-09T08:14:53.270Z,14.3833
2024-05-09T08:15:56.579Z,14.4135
2024-05-09T08:16:59.810Z,14.4416
2024-05-09T08:18:03.237Z,14.4609
2024-05-09T08:19:06.682Z,14.4812
2024-05-09T08:20:11.355Z,14.5186
2024-05-09T08:21:13.120Z,14.5598
2024-05-09T08:22:12.891Z,14.5824
2024-05-09T08:23:16.095Z,14.6012
2024-05-09T08:24:19.333Z,14.6140
2024-05-09T08:25:22.618Z,14.6195
2024-05-09T08:26:25.836Z,14.6247
2024-05-09T08:27:29.136Z,14.6194
2024-05-09T08:28:32.394Z,14.6082
2024-05-09T08:29:35.604Z,14.5907
2024-05-09T08:30:38.951Z,14.5721
2024-05-09T08:31:42.276Z,14.5495
2024-05-09T08:32:45.736Z,14.5166
2024-05-09T08:33:49.092Z,14.4890
2024-05-09T08:34:52.536Z,14.4628
2024-05-09T08:35:55.806Z,14.4391
2024-05-09T08:37:03.913Z,14.4167
2024-05-09T08:38:01.342Z,14.3953
2024-05-09T08:39:04.643Z,14.3733
2024-05-09T08:40:11.133Z,14.3517
2024-05-09T08:41:10.156Z,14.3539
2024-05-09T08:42:13.396Z,14.3845
2024-05-09T08:43:16.831Z,14.4226
2024-05-09T08:44:16.612Z,14.4521
2024-05-09T08:45:16.738Z,14.4916
2024-05-09T08:46:20.129Z,14.5561
2024-05-09T08:47:20.007Z,14.6307
2024-05-09T08:48:23.510Z,14.7197
2024-05-09T08:49:23.651Z,14.8196
2024-05-09T08:50:35.457Z,14.9165
2024-05-09T08:51:29.178Z,15.0064
2024-05-09T08:52:32.434Z,15.0857
2024-05-09T08:53:35.646Z,15.1369
2024-05-09T08:54:38.909Z,15.1673
2024-05-09T08:55:43.769Z,15.1928
2024-05-09T08:56:44.043Z,15.2063
2024-05-09T08:57:47.364Z,15.2160
2024-05-09T08:58:50.542Z,15.2383
2024-05-09T08:59:53.766Z,15.2753
2024-05-09T09:00:57.123Z,15.3179
2024-05-09T09:02:00.489Z,15.3610
2024-05-09T09:03:03.819Z,15.3882
2024-05-09T09:04:07.338Z,15.4084
2024-05-09T09:05:07.241Z,15.4250
2024-05-09T09:06:10.486Z,15.4364
2024-05-09T09:07:13.847Z,15.4384
2024-05-09T09:08:17.080Z,15.4282
2024-05-09T09:09:20.368Z,15.3982
2024-05-09T09:10:29.804Z,15.3421
2024-05-09T09:11:25.723Z,15.2636
2024-05-09T09:12:28.978Z,15.1807
2024-05-09T09:13:32.217Z,15.0975
2024-05-09T09:14:35.528Z,15.0172
2024-05-09T09:15:38.740Z,14.9524
2024-05-09T09:16:41.936Z,14.9080
2024-05-09T09:17:45.198Z,14.8819
2024-05-09T09:18:48.524Z,14.8715
2024-05-09T09:19:48.469Z,14.8811
2024-05-09T09:20:51.762Z,14.9167
2024-05-09T09:21:55.018Z,14.9636
2024-05-09T09:22:58.252Z,15.0005
2024-05-09T09:24:01.612Z,15.0091
2024-05-09T09:25:04.993Z,14.9966
2024-05-09T09:26:08.303Z,14.9874
2024-05-09T09:27:11.546Z,14.9762
2024-05-09T09:28:14.956Z,14.9789
2024-05-09T09:29:18.185Z,15.0166
2024-05-09T09:30:34.005Z,15.0915
2024-05-09T09:31:23.598Z,15.2048
2024-05-09T09:32:23.598Z,15.3330
2024-05-09T09:33:40.946Z,15.5258
2024-05-09T09:34:43.301Z,15.6552
2024-05-09T09:35:45.431Z,15.7873
2024-05-09T09:36:45.584Z,15.9227
2024-05-09T09:37:47.764Z,16.0527
2024-05-09T09:38:49.835Z,16.1601
2024-05-09T09:39:51.985Z,16.2443
2024-05-09T09:40:54.204Z,16.3176
2024-05-09T09:41:56.308Z,16.3873
2024-05-09T09:42:58.506Z,16.4420
2024-05-09T09:44:00.620Z,16.4915
2024-05-09T09:45:05.460Z,16.5343
2024-05-09T09:46:03.149Z,16.5722
2024-05-09T09:47:05.290Z,16.5959
2024-05-09T09:48:07.522Z,16.6196
2024-05-09T09:49:09.645Z,16.6308
2024-05-09T09:50:14.634Z,16.6217
2024-05-09T09:51:12.368Z,16.6179
2024-05-09T09:52:14.659Z,16.6194
2024-05-09T09:53:16.809Z,16.6452
2024-05-09T09:54:18.921Z,16.6839
2024-05-09T09:55:21.096Z,16.7183
2024-05-09T09:56:23.226Z,16.7633
2024-05-09T09:57:25.349Z,16.8419
2024-05-09T09:58:27.699Z,16.9384
2024-05-09T09:59:29.784Z,17.0387
2024-05-09T10:00:33.528Z,17.1321
2024-05-09T10:01:33.797Z,17.2208
2024-05-09T10:02:35.940Z,17.3131
2024-05-09T10:03:38.341Z,17.3939
2024-05-09T10:04:38.289Z,17.4565
2024-05-09T10:05:42.097Z,17.5020
2024-05-09T10:06:41.361Z,17.5515
2024-05-09T10:07:43.472Z,17.6038
2024-05-09T10:08:45.609Z,17.6589
2024-05-09T10:09:47.768Z,17.7111
2024-05-09T10:10:50.242Z,17.7762
2024-05-09T10:11:52.360Z,17.8555
2024-05-09T10:12:51.833Z,17.9345
2024-05-09T10:13:54.034Z,18.0066
2024-05-09T10:14:56.158Z,18.0806
2024-05-09T10:15:58.415Z,18.1593
2024-05-09T10:17:00.659Z,18.2204
2024-05-09T10:18:03.095Z,18.2828
2024-05-09T10:19:05.363Z,18.3082
2024-05-09T10:20:14.657Z,18.3037
2024-05-09T10:21:08.078Z,18.2865
2024-05-09T10:22:10.344Z,18.2958
2024-05-09T10:23:12.621Z,18.3433
2024-05-09T10:24:14.702Z,18.3935
2024-05-09T10:25:16.874Z,18.4581
2024-05-09T10:26:19.112Z,18.5365
2024-05-09T10:27:21.311Z,18.6210
2024-05-09T10:28:23.546Z,18.6895
2024-05-09T10:29:25.718Z,18.7701
2024-05-09T10:30:34.082Z,18.8584
2024-05-09T10:31:28.561Z,18.9658
2024-05-09T10:32:30.745Z,19.0705
2024-05-09T10:33:33.103Z,19.1586
2024-05-09T10:34:35.414Z,19.2176
2024-05-09T10:35:37.570Z,19.2898
2024-05-09T10:36:39.873Z,19.3703
2024-05-09T10:37:42.025Z,19.4396
2024-05-09T10:38:44.138Z,19.4825
2024-05-09T10:39:46.341Z,19.4995
2024-05-09T10:40:48.447Z,19.4870
2024-05-09T10:41:50.731Z,19.4224
2024-05-09T10:42:52.900Z,19.3167
2024-05-09T10:43:55.024Z,19.1980
2024-05-09T10:44:57.120Z,19.0699
2024-05-09T10:45:59.265Z,18.9369
2024-05-09T10:47:01.401Z,18.8075
2024-05-09T10:48:03.601Z,18.6880
2024-05-09T10:49:07.875Z,18.5775
2024-05-09T10:50:15.737Z,18.4721
2024-05-09T10:51:08.249Z,18.3705
2024-05-09T10:52:10.473Z,18.2971
2024-05-09T10:53:12.582Z,18.2399
2024-05-09T10:54:14.692Z,18.2097
2024-05-09T10:55:17.079Z,18.2166
2024-05-09T10:56:19.183Z,18.2697
2024-05-09T10:57:21.343Z,18.3528
2024-05-09T10:58:23.581Z,18.4487
2024-05-09T10:59:25.689Z,18.5525
2024-05-09T11:00:33.595Z,18.6770
2024-05-09T11:01:28.758Z,18.8100
2024-05-09T11:02:31.122Z,18.9204
2024-05-09T11:03:31.117Z,19.0273
2024-05-09T11:04:33.337Z,19.1411
2024-05-09T11:05:35.528Z,19.2626
2024-05-09T11:06:37.690Z,19.3911
2024-05-09T11:07:40.025Z,19.5088
2024-05-09T11:08:42.216Z,19.5938
2024-05-09T11:09:44.451Z,19.6280
2024-05-09T11:10:46.702Z,19.6324
2024-05-09T11:11:48.879Z,19.6562
2024-05-09T11:12:51.180Z,19.7136
2024-05-09T11:13:53.263Z,19.8069
2024-05-09T11:14:55.492Z,19.8981
2024-05-09T11:15:57.603Z,19.9175
2024-05-09T11:16:58.245Z,19.8964
2024-05-09T11:18:00.583Z,19.8418
2024-05-09T11:19:02.900Z,19.7592
2024-05-09T11:20:13.298Z,19.6737
2024-05-09T11:21:05.697Z,19.6054
2024-05-09T11:22:07.925Z,19.5554
2024-05-09T11:23:10.118Z,19.5381
2024-05-09T11:24:12.194Z,19.6189
2024-05-09T11:25:14.418Z,19.8847
2024-05-09T11:26:16.541Z,20.1803
2024-05-09T11:27:18.655Z,20.3882
2024-05-09T11:28:20.903Z,20.5077
2024-05-09T11:29:23.018Z,20.5477
2024-05-09T11:30:30.115Z,20.5120
2024-05-09T11:31:25.972Z,20.4611
2024-05-09T11:32:28.327Z,20.3964
2024-05-09T11:33:30.634Z,20.3017
2024-05-09T11:34:32.901Z,20.1899
2024-05-09T11:35:35.058Z,20.0907
2024-05-09T11:36:37.207Z,19.9967
2024-05-09T11:37:39.346Z,19.9055
2024-05-09T11:38:41.473Z,19.8321
2024-05-09T11:39:43.612Z,19.7827
2024-05-09T11:40:45.728Z,19.7524
2024-05-09T11:41:47.861Z,19.7531
2024-05-09T11:42:52.498Z,19.7753
2024-05-09T11:43:50.180Z,19.8047
2024-05-09T11:44:52.287Z,19.8619
2024-05-09T11:45:54.431Z,19.9494
2024-05-09T11:46:56.508Z,20.0320
2024-05-09T11:47:58.846Z,20.1188
2024-05-09T11:49:01.110Z,20.1954
2024-05-09T11:50:04.365Z,20.2498
2024-05-09T11:51:04.765Z,20.2633
2024-05-09T11:52:06.909Z,20.2461
2024-05-09T11:53:09.049Z,20.1999
2024-05-09T11:54:11.126Z,20.1502
2024-05-09T11:55:13.320Z,20.0916
2024-05-09T11:56:15.432Z,20.0153
2024-05-09T11:57:17.522Z,19.9428
2024-05-09T11:58:19.854Z,19.8610
2024-05-09T11:59:22.118Z,19.7667
2024-05-09T12:00:33.754Z,19.6724
2024-05-09T12:01:27.510Z,19.5954
2024-05-09T12:02:25.079Z,19.5392
2024-05-09T12:03:27.352Z,19.5073
2024-05-09T12:04:29.581Z,19.5007
2024-05-09T12:05:32.035Z,19.5125
2024-05-09T12:06:31.899Z,19.5179
2024-05-09T12:07:34.037Z,19.5303
2024-05-09T12:08:36.152Z,19.5517
2024-05-09T12:09:38.401Z,19.6046
2024-05-09T12:10:40.769Z,19.6892
2024-05-09T12:11:40.525Z,19.8353
2024-05-09T12:12:42.642Z,20.0194
2024-05-09T12:13:44.791Z,20.2003
2024-05-09T12:14:46.901Z,20.3380
2024-05-09T12:15:49.044Z,20.4387
2024-05-09T12:16:51.275Z,20.5024
2024-05-09T12:17:53.573Z,20.5367
2024-05-09T12:18:55.984Z,20.5458
2024-05-09T12:19:58.182Z,20.5516
2024-05-09T12:21:00.305Z,20.5649
2024-05-09T12:22:02.466Z,20.5846
2024-05-09T12:23:04.613Z,20.6148
2024-05-09T12:24:06.687Z,20.6584
2024-05-09T12:25:08.898Z,20.7066
2024-05-09T12:26:11.075Z,20.7520
2024-05-09T12:27:11.140Z,20.7976
2024-05-09T12:28:13.314Z,20.8448
2024-05-09T12:29:15.451Z,20.8803
2024-05-09T12:30:29.034Z,20.9259
2024-05-09T12:31:18.214Z,21.0054
2024-05-09T12:32:20.432Z,21.1063
2024-05-09T12:33:22.674Z,21.1804
2024-05-09T12:34:24.782Z,21.2057
2024-05-09T12:35:26.895Z,21.2326
2024-05-09T12:36:27.557Z,21.2742
2024-05-09T12:37:29.719Z,21.3326
2024-05-09T12:38:31.838Z,21.4041
2024-05-09T12:39:33.988Z,21.4942